HOURLY OBS INDEX

009

Lower West, Southwest & South Coast

ALBANY AIRPORT

Site: 009999
Alt: 68.4m
10km NW of ALBANY


  Time     Wind        Temp  DP   Baro     Rain since   Rain past  Vis(m), Cloud(base in m), Weather
  local        km/h                         9am  last   hr   10m    
Wed 18:00   SW  7/  9  12.7  9.7  1027.0    4.6   0.0   0.0   0.0   10000|BR1380 
Wed 18:30  SSW  7/  9  11.9  9.3  1027.4    4.6   0.0   0.0   0.0   10000|SC1050 BR1320 
Wed 19:00  WSW  2/  7  12.4  9.8  1027.8    4.6   0.0   0.0   0.0   10000|BR1050 OC1410 OC1650 
Wed 19:30  SSW  6/ 11  12.3  9.7  1028.3    4.6   0.0   0.0   0.0   10000|SC 870 SC1050 OC1470 
Wed 20:00  SSE  7/ 11  12.3  9.3  1028.6    4.6   0.0   0.0   0.0   10000|BR1470 
Wed 20:30  SSE  9/  9  11.3  9.0  1028.9    4.6   0.0   0.0   0.0   10000|SC1530 
Wed 21:00  SSE  6/  7  10.6  8.7  1029.3    4.6   0.0   0.0   0.0   10000|SC1530 
Wed 21:30    C  0/  0   9.3  8.2  1029.5    4.6   0.0   0.0   0.0   10000 
Wed 22:00  SSE  7/  9   8.8  8.0  1029.8    4.6   0.0   0.0   0.0   10000|BR1680 
Wed 22:30    C  0/  4   9.3  8.4  1029.8    4.6   0.0   0.0   0.0   10000|BR1680 
Wed 23:00    C  0/  0   8.7  7.9  1030.0    4.6   0.0   0.0   0.0   10000 

BADGINGARRA AG STATION

Site: 009GBA
Alt: 284 m
56km NW of MOORA


  Time     Wind        Temp  DP   Baro     Rain since   Rain past  Vis(m), Cloud(base in m), Weather
  local        km/h                         9am  last   hr   10m    
Wed 18:00  SSE  2/  4  13.4 10.0  ------    0.0   0.0   0.0   0.0   ----- 
Wed 18:30  SSE  4/  6  12.3  8.8  ------    0.0   0.0   0.0   0.0   ----- 
Wed 19:00  SSE  2/  4  10.8  8.6  ------    0.0   0.0   0.0   0.0   ----- 
Wed 19:30  SSE  4/  6  11.5  9.9  ------    0.0   0.0   0.0   0.0   ----- 
Wed 20:00  SSE  4/  7  10.0  8.3  ------    0.0   0.0   0.0   0.0   ----- 
Wed 20:30  SSE  4/  6  10.3  8.8  ------    0.0   0.0   0.0   0.0   ----- 
Wed 21:00    S  4/  6   9.7  8.5  ------    0.0   0.0   0.0   0.0   ----- 
Wed 21:30  SSE  6/  7   9.6  8.7  ------    0.0   0.0   0.0   0.0   ----- 
Wed 22:00  SSE  4/  7   9.5  8.6  ------    0.0   0.0   0.0   0.0   ----- 
Wed 22:30  SSE  6/  7   9.5  8.7  ------    0.0   0.0   0.0   0.0   ----- 

BADGINGARRA RESEARCH STN

Site: 009037
Alt: 275.0m
55km NW of MOORA


  Time     Wind        Temp  DP   Baro     Rain since   Rain past  Vis(m), Cloud(base in m), Weather
  local        km/h                         9am  last   hr   10m    
Wed 18:00  SSE  6/  7  13.1  9.9  ------    0.0   0.0   0.0   0.0   ----- 
Wed 18:30  SSE  7/  7  12.1  8.9  ------    0.0   0.0   0.0   0.0   ----- 
Wed 19:00  SSE  6/  7  10.7  8.5  ------    0.0   0.0   0.0   0.0   ----- 
Wed 19:30  SSE  6/  7  11.4  9.5  ------    0.0   0.0   0.0   0.0   ----- 
Wed 20:00  SSE  7/  9   9.8  7.9  ------    0.0   0.0   0.0   0.0   ----- 
Wed 20:30  SSE  7/  7  10.1  8.2  ------    0.0   0.0   0.0   0.0   ----- 
Wed 21:00  SSE  7/  7   9.6  8.2  ------    0.0   0.0   0.0   0.0   ----- 
Wed 21:30  SSE 11/ 11   9.6  8.2  ------    0.0   0.0   0.0   0.0   ----- 
Wed 22:00  SSE  9/ 11   9.5  7.9  ------    0.0   0.0   0.0   0.0   ----- 
Wed 22:30  SSE 13/ 13   9.4  7.8  ------    0.0   0.0   0.0   0.0   ----- 
Wed 23:00  SSE 11/ 13   9.8  8.6  ------    0.0   0.0   0.0   0.0   ----- 

BICKLEY

Site: 009240
Alt: 384.0m
27km ESE of PERTH CBD


  Time     Wind        Temp  DP   Baro     Rain since   Rain past  Vis(m), Cloud(base in m), Weather
  local        km/h                         9am  last   hr   10m    
Wed 18:00   SW 11/ 15  11.6  8.6  ------    0.2   0.0   0.0   0.0   ----- 
Wed 18:30   SW 11/ 15  11.2  8.6  ------    0.2   0.0   0.0   0.0   ----- 
Wed 19:00  SSW 13/ 15  11.2  8.9  ------    0.2   0.0   0.0   0.0   ----- 
Wed 19:30  SSW 13/ 15  10.9  9.0  ------    0.2   0.0   0.0   0.0   ----- 
Wed 20:00  SSW 13/ 17  10.8  9.1  ------    0.2   0.0   0.0   0.0   ----- 
Wed 20:30  SSW 11/ 15  10.5  9.1  ------    0.2   0.0   0.0   0.0   ----- 
Wed 21:00    S 13/ 20  10.3  9.2  ------    0.2   0.0   0.0   0.0   ----- 
Wed 21:30  SSE 13/ 20  10.5  9.4  ------    0.2   0.0   0.0   0.0   ----- 
Wed 22:00   SE 15/ 24  10.3  9.1  ------    0.2   0.0   0.0   0.0   ----- 
Wed 22:30   SE 13/ 22  10.0  8.9  ------    0.2   0.0   0.0   0.0   ----- 
Wed 23:00   SE 15/ 22   9.8  8.9  ------    0.2   0.0   0.0   0.0   ----- 

BREMER BAY AG STATION

Site: 009UPW
Alt: 100m
41km ENE of ESPERANCE


  Time     Wind        Temp  DP   Baro     Rain since   Rain past  Vis(m), Cloud(base in m), Weather
  local        km/h                         9am  last   hr   10m    
Wed 18:00    W  4/  6  10.9 10.1  ------    2.4   0.0   0.0   0.0   ----- 
Wed 18:30    W  4/  6  10.9 10.1  ------    2.4   0.0   0.0   0.0   ----- 
Wed 19:00   NW  6/  7   9.7  9.0  ------    2.4   0.0   0.0   0.0   ----- 
Wed 19:30    W  9/ 15  11.1 10.4  ------    2.4   0.0   0.0   0.0   ----- 
Wed 20:00   SW 15/ 24  12.3 11.6  ------    2.8   0.4   0.4   0.0   ----- 
Wed 20:30   SW  6/ 24  11.8 11.5  ------    3.2   0.4   0.8   0.2   ----- 
Wed 21:00   SW  7/ 11  12.0 11.5  ------    3.2   0.0   0.4   0.0   ----- 
Wed 21:30  SSW  9/ 15  12.0 11.2  ------    3.2   0.0   0.0   0.0   ----- 
Wed 22:00    S 13/ 20  12.1 10.2  ------    3.2   0.0   0.0   0.0   ----- 
Wed 22:30    S 13/ 22  11.9  8.8  ------    3.2   0.0   0.0   0.0   ----- 

BRIDGETOWN

Site: 009617
Alt: 178.7m
33km N of MANJIMUP


  Time     Wind        Temp  DP   Baro     Rain since   Rain past  Vis(m), Cloud(base in m), Weather
  local        km/h                         9am  last   hr   10m    
Wed 18:00    C  0/  0  10.7 10.2  1027.4    0.6   0.0   0.0   0.0   ----- 
Wed 18:30    C  0/  0  10.0  9.9  1027.9    0.6   0.0   0.0   0.0   ----- 
Wed 19:00    C  0/  0   8.8  8.7  1028.4    0.6   0.0   0.0   0.0   ----- 
Wed 19:30    C  0/  0   8.1  8.0  1028.6    0.6   0.0   0.0   0.0   ----- 
Wed 20:00    C  0/  0   7.8  7.7  1029.0    0.6   0.0   0.0   0.0   ----- 
Wed 20:30    C  0/  0   7.5  7.4  1029.5    0.6   0.0   0.0   0.0   ----- 
Wed 21:00    C  0/  0   7.9  7.9  1029.7    0.6   0.0   0.0   0.0   ----- 
Wed 21:30    C  0/  0   7.6  7.6  1030.3    0.8   0.2   0.2   0.0   ----- 
Wed 22:00    C  0/  0   7.4  7.4  1030.5    0.8   0.0   0.2   0.0   ----- 
Wed 22:30    C  0/  0   7.5  7.5  1030.7    0.8   0.0   0.0   0.0   ----- 
Wed 23:00    C  0/  0   6.7  6.7  1030.6    0.8   0.0   0.0   0.0   ----- 

BUNBURY

Site: 009965
Alt: 5.2m
2km S of BUNBURY


  Time     Wind        Temp  DP   Baro     Rain since   Rain past  Vis(m), Cloud(base in m), Weather
  local        km/h                         9am  last   hr   10m    
Wed 18:00    S 11/ 17  14.7 10.3  1027.2    0.0   0.0   0.0   0.0   ----- 
Wed 18:30    S 11/ 17  14.0 10.0  1027.7    0.0   0.0   0.0   0.0   ----- 
Wed 19:00  SSE  7/ 11  13.0  9.8  1028.3    0.0   0.0   0.0   0.0   ----- 
Wed 19:30   SE  7/ 11  12.5  9.7  1028.8    0.0   0.0   0.0   0.0   ----- 
Wed 20:00  ESE  6/  6  11.7  9.4  1029.0    0.0   0.0   0.0   0.0   ----- 
Wed 20:30  ESE  4/  6  10.8  8.7  1029.5    0.0   0.0   0.0   0.0   ----- 
Wed 21:00    C  0/  0   9.7  8.0  1029.7    0.0   0.0   0.0   0.0   ----- 
Wed 21:30    C  0/  4   8.9  7.5  1030.1    0.0   0.0   0.0   0.0   ----- 
Wed 22:00    S  6/  7   8.8  7.6  1030.3    0.0   0.0   0.0   0.0   ----- 
Wed 22:30    S  7/  9   9.6  8.7  1030.5    0.0   0.0   0.0   0.0   ----- 
Wed 23:00    S  7/  9  10.3  9.4  1030.6    0.0   0.0   0.0   0.0   ----- 

BUSSELTON AERO

Site: 009603
Alt: 16.3m
5km ESE of BUSSELTON


  Time     Wind        Temp  DP   Baro     Rain since   Rain past  Vis(m), Cloud(base in m), Weather
  local        km/h                         9am  last   hr   10m    
Wed 18:00  SSE 15/ 20  13.3 10.8  1027.4    0.2   0.0   0.0   0.0   10000 
Wed 18:30  SSE 11/ 17  12.6 10.7  1027.7    0.2   0.0   0.0   0.0   10000 
Wed 19:00   SE  9/ 11  11.8 10.5  1028.2    0.2   0.0   0.0   0.0   10000 
Wed 19:30  ESE  6/  7  11.3 10.5  1028.4    0.2   0.0   0.0   0.0   10000 
Wed 20:00    C  0/  0  11.4 11.2  1028.9    0.2   0.0   0.0   0.0   10000 
Wed 20:30    S  9/  9   9.6  9.5  1029.4    0.2   0.0   0.0   0.0   10000 
Wed 21:00  SSW  9/  9   9.4  9.3  1029.8    0.2   0.0   0.0   0.0   10000 
Wed 21:30  SSW  9/ 11   9.3  9.3  1030.2    0.2   0.0   0.0   0.0   10000|SC1140 
Wed 22:00  SSW  9/ 11   7.7  7.6  1030.4    0.2   0.0   0.0   0.0   10000|SC1140 
Wed 22:23  SSW  6/  7   8.0  8.0  1030.4    0.2   0.0  ----   0.0    4800|SC 570 SC 870 BR1020 
Wed 22:27    S  6/  7   8.0  8.0  1030.5    0.2   0.0  ----   0.0     900|SC 330 SC 570 SC 810 
Wed 22:30    S  6/  7   7.9  7.9  1030.4    0.2   0.0   0.0   0.0     250|SC 180 SC 330 SC 540 
Wed 22:36  SSE  6/  7   7.7  7.7  1030.5    0.2   0.0  ----   0.0     100|SC  90 BR 210 BR 810 
Wed 22:54  SSE  4/  6   7.2  7.2  1030.4    0.2   0.0  ----   0.0     450|SC  90 SC 180 SC 420 
Wed 23:00    C  0/  4   6.9  6.9  1030.4    0.2   0.0   0.0   0.0     600|SC  90 SC 330 SC1440 

CAPE LEEUWIN

Site: 009518
Alt: 13.0m
47km S of MARGARET RIVER


  Time     Wind        Temp  DP   Baro     Rain since   Rain past  Vis(m), Cloud(base in m), Weather
  local        km/h                         9am  last   hr   10m    
Wed 18:00    S 22/ 30  15.7  9.1  1027.4    0.0   0.0   0.0   0.0   ----- 
Wed 18:30  SSE 22/ 30  15.7  8.9  1027.8    0.0   0.0   0.0   0.0   ----- 
Wed 19:00    S 20/ 28  15.5  8.3  1028.2    0.0   0.0   0.0   0.0   ----- 
Wed 19:30  SSE 22/ 30  15.8  8.5  1028.7    0.0   0.0   0.0   0.0   ----- 
Wed 20:00   SE 22/ 30  15.9  8.4  1029.1    0.0   0.0   0.0   0.0   ----- 
Wed 20:30    S 19/ 24  15.7  8.4  1029.5    0.0   0.0   0.0   0.0   ----- 
Wed 21:00    S 15/ 20  15.5  8.0  1029.8    0.0   0.0   0.0   0.0   ----- 
Wed 21:30    S 15/ 19  15.2  7.3  1030.0    0.0   0.0   0.0   0.0   ----- 
Wed 22:00    S 13/ 17  15.6  8.4  1030.1    0.0   0.0   0.0   0.0   ----- 
Wed 22:30   SE 22/ 30  15.9  9.6  1030.3    0.0   0.0   0.0   0.0   ----- 
Wed 23:00  ESE 20/ 26  15.8  8.8  1030.3    0.0   0.0   0.0   0.0   ----- 

CAPE NATURALISTE

Site: 009519
Alt: 109.0m
34km WNW of BUSSELTON


  Time     Wind        Temp  DP   Baro     Rain since   Rain past  Vis(m), Cloud(base in m), Weather
  local        km/h                         9am  last   hr   10m    
Wed 18:00  SSE 22/ 32  13.1  9.7  1026.9    0.0   0.0   0.0   0.0   ----- 
Wed 18:30   SE 20/ 26  12.6  9.6  1027.3    0.0   0.0   0.0   0.0   ----- 
Wed 19:00   SE 20/ 26  12.4  9.8  1027.8    0.0   0.0   0.0   0.0   ----- 
Wed 19:30   SE 17/ 20  11.9  9.5  1028.4    0.0   0.0   0.0   0.0   ----- 
Wed 20:00   SE 17/ 20  11.6  9.5  1028.9    0.0   0.0   0.0   0.0   ----- 
Wed 20:30   SE 15/ 17  11.4  9.5  1029.3    0.0   0.0   0.0   0.0   ----- 
Wed 21:00   SE 15/ 17  11.3  9.4  1029.7    0.0   0.0   0.0   0.0   ----- 
Wed 21:30   SE 15/ 19  11.2  9.5  1030.0    0.0   0.0   0.0   0.0   ----- 
Wed 22:00   SE 17/ 20  11.1  9.4  1030.1    0.0   0.0   0.0   0.0   ----- 
Wed 22:30   SE 17/ 19  11.0  9.3  1030.3    0.0   0.0   0.0   0.0   ----- 
Wed 23:00   SE 15/ 17  10.7  9.0  1030.4    0.0   0.0   0.0   0.0   ----- 

COLLIE EAST

Site: 009994
Alt: 200.0m
2km ESE of COLLIE


  Time     Wind        Temp  DP   Baro     Rain since   Rain past  Vis(m), Cloud(base in m), Weather
  local        km/h                         9am  last   hr   10m    
Wed 18:00    C  0/  2  11.9  8.9  ------    0.0   0.0   0.0   0.0   ----- 
Wed 18:30  SSE  6/ 11  12.1  9.5  ------    0.0   0.0   0.0   0.0   ----- 
Wed 19:00   SE  2/  6  11.5  8.9  ------    0.0   0.0   0.0   0.0   ----- 
Wed 19:30    C  0/  6  10.3  8.1  ------    0.0   0.0   0.0   0.0   ----- 
Wed 20:00    C  0/  0   9.4  7.3  ------    0.0   0.0   0.0   0.0   ----- 
Wed 20:30    C  0/  0   8.8  7.1  ------    0.0   0.0   0.0   0.0   ----- 
Wed 21:00    C  0/  0   8.7  7.2  ------    0.0   0.0   0.0   0.0   ----- 
Wed 21:30    C  0/  0   8.5  7.1  ------    0.0   0.0   0.0   0.0   ----- 
Wed 22:00    C  0/  0   7.5  6.1  ------    0.0   0.0   0.0   0.0   ----- 
Wed 22:30    C  0/  0   6.6  5.2  ------    0.0   0.0   0.0   0.0   ----- 
Wed 23:00    C  0/  0   5.9  4.5  ------    0.0   0.0   0.0   0.0   ----- 

COLPOYS POINT

Site: 009255
Alt: 3.0m
34km N of MANDURAH


  Time     Wind        Temp  DP   Baro     Rain since   Rain past  Vis(m), Cloud(base in m), Weather
  local        km/h                         9am  last   hr   10m    
Wed 18:00  SSE  6/  7 --------  ------   ----  ----  ----  ----   ----- 
Wed 18:30  SSE  6/  7 --------  ------   ----  ----  ----  ----   ----- 
Wed 19:00  SSE 13/ 17 --------  ------   ----  ----  ----  ----   ----- 
Wed 19:30  SSE 11/ 13 --------  ------   ----  ----  ----  ----   ----- 
Wed 20:00  SSE 13/ 15 --------  ------   ----  ----  ----  ----   ----- 
Wed 20:30  SSE 15/ 15 --------  ------   ----  ----  ----  ----   ----- 
Wed 21:00  SSE 15/ 17 --------  ------   ----  ----  ----  ----   ----- 
Wed 21:30  SSE 17/ 19 --------  ------   ----  ----  ----  ----   ----- 
Wed 22:00  SSE 17/ 20 --------  ------   ----  ----  ----  ----   ----- 
Wed 22:30   SE 19/ 22 --------  ------   ----  ----  ----  ----   ----- 
Wed 23:00   SE 17/ 20 --------  ------   ----  ----  ----  ----   ----- 

COOMALBIDGUP AG STATION

Site: 009MLP
Alt: 90m
57km WNW of ESPERANCE


  Time     Wind        Temp  DP   Baro     Rain since   Rain past  Vis(m), Cloud(base in m), Weather
  local        km/h                         9am  last   hr   10m    
Wed 18:00  WSW  2/  6  12.5 10.8  ------    4.2   0.0   0.0   0.0   ----- 
Wed 18:30    W  4/  7  12.2 10.6  ------    4.2   0.0   0.0   0.0   ----- 
Wed 19:00    S  7/ 13  12.8 11.6  ------    4.2   0.0   0.0   0.0   ----- 
Wed 19:30   SW 13/ 24  13.1 12.2  ------    7.4   3.2   3.2   2.8   ----- 
Wed 20:00    S  9/ 19  12.9 12.2  ------    7.6   0.2   3.4   0.2   ----- 
Wed 20:30    S  9/ 19  12.8 12.1  ------    7.6   0.0   0.2   0.0   ----- 
Wed 21:00    S  9/ 20  12.7 11.6  ------    7.8   0.2   0.2   0.0   ----- 
Wed 21:30    S 11/ 24  12.9 10.7  ------    7.8   0.0   0.2   0.0   ----- 
Wed 22:00    S 11/ 20  13.1 10.0  ------    7.8   0.0   0.0   0.0   ----- 
Wed 22:30  SSW 13/ 28  13.2  9.6  ------    7.8   0.0   0.0   0.0   ----- 

DARDANUP

Site: 009GDA
Alt: 24 m
13km E of BUNBURY


  Time     Wind        Temp  DP   Baro     Rain since   Rain past  Vis(m), Cloud(base in m), Weather
  local        km/h                         9am  last   hr   10m    
Wed 18:00  SSE  6/---  12.0  9.6  ------    0.4   0.0   0.4   0.0   ----- 
Wed 18:30    S  6/---  11.3  9.3  ------    0.4   0.0   0.0   0.0   ----- 
Wed 19:30   SE  4/---  11.2  8.8  ------    0.4   0.0   0.0   0.0   ----- 
Wed 20:00    E  2/---   9.6  7.7  ------    0.4   0.0  ----   0.0   ----- 
Wed 20:30  ESE  2/---  10.6  8.8  ------    0.4   0.0   0.0   0.0   ----- 
Wed 21:00   NW  2/---   7.8  6.4  ------    0.4   0.0   0.0   0.0   ----- 
Wed 21:30    S  2/---   7.6  6.2  ------    0.4   0.0   0.0   0.0   ----- 
Wed 22:00    S  7/---   8.3  7.1  ------    0.4   0.0   0.0   0.0   ----- 
Wed 22:30    S  9/---   8.4  7.1  ------    0.4   0.0   0.0   0.0   ----- 
Wed 23:00    S  6/---   7.5  6.3  ------    0.4   0.0   0.0   0.0   ----- 

DONNYBROOK AG STATION

Site: 009GDB
Alt: 71 m
33km SE of BUNBURY


  Time     Wind        Temp  DP   Baro     Rain since   Rain past  Vis(m), Cloud(base in m), Weather
  local        km/h                         9am  last   hr   10m    
Wed 18:00    C  0/  0  11.3  9.6  ------    0.2   0.0   0.0   0.0   ----- 
Wed 18:30   SE  2/ 11  12.6 10.8  ------    0.2   0.0   0.0   0.0   ----- 
Wed 19:00  ESE  2/  6  11.4  9.5  ------    0.2   0.0   0.0   0.0   ----- 
Wed 19:30    C  0/  4  10.5  9.9  ------    0.2   0.0   0.0   0.0   ----- 
Wed 20:00    C  0/  4   8.7  8.2  ------    0.2   0.0   0.0   0.0   ----- 
Wed 20:30    C  0/  2   8.2  7.9  ------    0.2   0.0   0.0   0.0   ----- 
Wed 21:00    C  0/  0   7.9  7.7  ------    0.2   0.0   0.0   0.0   ----- 
Wed 21:30    C  0/  2   7.6  7.5  ------    0.2   0.0   0.0   0.0   ----- 
Wed 22:00    C  0/  0   6.8  6.7  ------    0.2   0.0   0.0   0.0   ----- 
Wed 22:30    C  0/  2   6.4  6.4  ------    0.2   0.0   0.0   0.0   ----- 

DWELLINGUP

Site: 009538
Alt: 267.0m
37km ESE of MANDURAH


  Time     Wind        Temp  DP   Baro     Rain since   Rain past  Vis(m), Cloud(base in m), Weather
  local        km/h                         9am  last   hr   10m    
Wed 18:00   SW 11/ 13  12.2  9.0  1027.0    0.0   0.0   0.0   0.0   ----- 
Wed 18:30  SSW  9/ 11  11.0  8.6  1027.5    0.0   0.0   0.0   0.0   ----- 
Wed 19:00  SSE 11/ 11  10.2  8.1  1028.1    0.0   0.0   0.0   0.0   ----- 
Wed 19:30  SSE 13/ 13   9.7  8.0  1028.4    0.0   0.0   0.0   0.0   ----- 
Wed 20:00    S 11/ 15  10.0  8.6  1029.0    0.0   0.0   0.0   0.0   ----- 
Wed 20:30   SE 13/ 17   9.6  8.2  1029.2    0.0   0.0   0.0   0.0   ----- 
Wed 21:00   SE 15/ 20   9.0  7.6  1029.5    0.0   0.0   0.0   0.0   ----- 
Wed 21:30   SE 13/ 17   8.6  7.4  1029.6    0.0   0.0   0.0   0.0   ----- 
Wed 22:00   SE 15/ 19   8.4  7.3  1029.7    0.0   0.0   0.0   0.0   ----- 
Wed 22:30   SE 15/ 19   9.1  8.2  1029.8    0.0   0.0   0.0   0.0   ----- 
Wed 23:00   SE 13/ 17   8.8  7.7  1029.9    0.0   0.0   0.0   0.0   ----- 

ESPERANCE

Site: 009789
Alt: 25.0m
3km N of ESPERANCE


  Time     Wind        Temp  DP   Baro     Rain since   Rain past  Vis(m), Cloud(base in m), Weather
  local        km/h                         9am  last   hr   10m    
Wed 18:00   SW 11/ 15  14.0  9.2  1024.5    0.6   0.0   0.0   0.0   10000 
Wed 18:30  WSW 11/ 15  14.2  9.2  1024.8    0.6   0.0   0.0   0.0   10000 
Wed 19:00  SSW 19/ 30  14.1 11.6  1025.4    0.6   0.0   0.0   0.0   10000 
Wed 19:30  SSW 15/ 24  14.2 11.5  1025.7    0.6   0.0   0.0   0.0   10000 
Wed 19:50    S 22/ 35  13.4 11.3  1026.0    0.6   0.0  ----   0.0    7000 
Wed 20:00    S 15/ 22  13.4 12.0  1026.2    0.8   0.2   0.2   0.2    6000 
Wed 20:30    S 20/ 28  13.8 11.7  1026.4    0.8   0.0   0.2   0.0   10000 
Wed 21:00    S 20/ 33  14.6  9.6  1026.6    0.8   0.0   0.0   0.0   10000 
Wed 21:30    S 20/ 32  14.6  8.8  1027.1    0.8   0.0   0.0   0.0   10000 
Wed 22:00  SSW 17/ 28  14.5  7.8  1027.5    0.8   0.0   0.0   0.0   10000 
Wed 22:30    S 20/ 32  14.5  7.8  1027.7    0.8   0.0   0.0   0.0   10000 
Wed 23:00    S 20/ 32  14.5  6.1  1027.9    0.8   0.0   0.0   0.0   10000 

ESPERANCE AERO

Site: 009542
Alt: 142.0m
21km NNW of ESPERANCE


  Time     Wind        Temp  DP   Baro     Rain since   Rain past  Vis(m), Cloud(base in m), Weather
  local        km/h                         9am  last   hr   10m    
Wed 18:00  WSW  9/ 11  11.0 11.0  1024.8    8.0   0.0   0.0   0.0   10000 
Wed 18:30    W  9/ 13  10.9 10.9  1025.2    8.0   0.0   0.0   0.0   10000 
Wed 19:00    W 11/ 13  11.0 11.0  1025.5    8.0   0.0   0.0   0.0   10000|BR1260 
Wed 19:25   SW 19/ 26  11.8 11.8  1026.0    8.2   0.2  ----   0.2    6000|SC 330 SC 660 SC 840 
Wed 19:30   SW 15/ 22  11.7 11.7  1026.1    9.0   0.8   1.0   1.0    3200|SC 330 SC 420 BR 750 
Wed 19:33   SW 13/ 19  11.6 11.6  1026.1    9.0   0.0  ----   1.0    3500|SC 330 BR 420 BR 690 
Wed 19:46  WSW 11/ 15  11.3 11.3  1026.2    9.0   0.0  ----   0.0   10000|SC 330 SC 450 BR 690 
Wed 19:52    W  9/ 13  11.2 11.2  1026.3    9.0   0.0  ----   0.0   10000|SC 390 BR 690 BR 840 
Wed 20:00  WSW 11/ 15  11.7 11.7  1026.4    9.0   0.0   1.0   0.0   10000|SC 330 SC 630 BR 810 
Wed 20:10  SSW 15/ 19  11.8 11.8  1026.6    9.0   0.0  ----   0.0    6000|SC 210 BR 330 BR 570 
Wed 20:11  SSW 13/ 19  11.8 11.8  1026.6    9.0   0.0  ----   0.0    5000|SC 210 BR 330 BR 570 
Wed 20:30    S  9/ 13  12.1 12.1  1026.8    9.0   0.0   0.0   0.0   10000|SC 180 BR 390 OC 570 
Wed 20:33    S 11/ 15  12.1 12.1  1026.8    9.2   0.2  ----   0.2    5000|SC 150 SC 270 BR 390 
Wed 20:57  SSW  9/ 11  12.2 12.2  1026.9    9.8   0.6  ----   0.0   10000|SC 150 BR 270 BR 450 
Wed 21:00  SSW  7/ 11  12.2 12.2  1027.0    9.8   0.0   0.8   0.0   10000|SC 180 BR 330 OC 660 
Wed 21:13   SW  6/  9  12.2 12.2  1027.2    9.8   0.0  ----   0.0   10000|SC 150 BR 690 OC 870 
Wed 21:30    S 13/ 17  12.0 12.0  1027.3    9.8   0.0   0.8   0.0   10000|BR 750 OC 930 
Wed 22:00  SSW 13/ 20  12.0 12.0  1027.7    9.8   0.0   0.0   0.0   10000|OC 810 
Wed 22:30  SSW 15/ 20  11.7 11.7  1028.1    9.8   0.0   0.0   0.0   10000|BR 990 OC1200 
Wed 23:00    S 17/ 24  11.6 11.6  1028.3    9.8   0.0   0.0   0.0    7000|OC 870 
Wed 23:04  SSW 17/ 22  11.6 11.6  1028.3    9.8   0.0  ----   0.0    6000|OC 870 

ESPERANCE AG STATION

Site: 009GES
Alt: 158 m
158km NNW of ESPERANCE


  Time     Wind        Temp  DP   Baro     Rain since   Rain past  Vis(m), Cloud(base in m), Weather
  local        km/h                         9am  last   hr   10m    
Wed 18:00  WSW  2/  4  11.1 11.1  ------    1.0   0.0   0.0   0.0   ----- 
Wed 18:30  WNW  2/  4  10.7 10.7  ------    1.0   0.0   0.0   0.0   ----- 
Wed 19:00  WNW  2/  4   9.9  9.9  ------    1.0   0.0   0.0   0.0   ----- 
Wed 19:30  WSW  4/ 15  10.6 10.6  ------    1.0   0.0   0.0   0.0   ----- 
Wed 20:00  WSW  2/  6  11.2 11.2  ------    2.4   1.4   1.4   0.2   ----- 
Wed 20:30  SSW  6/  9  11.8 11.8  ------    2.4   0.0   1.4   0.0   ----- 
Wed 21:00  SSW  6/ 11  12.0 12.0  ------    3.0   0.6   0.6   0.2   ----- 
Wed 21:30   SW  2/  7  12.0 12.0  ------    3.0   0.0   0.6   0.0   ----- 
Wed 22:00    S  7/ 17  11.6 11.6  ------    3.0   0.0   0.0   0.0   ----- 
Wed 22:30  SSW  6/ 11  11.4 11.3  ------    3.0   0.0   0.0   0.0   ----- 

FLOREAT PARK AG STATION

Site: 009GFL
Alt: 158 m
7km W of PERTH CBD


  Time     Wind        Temp  DP   Baro     Rain since   Rain past  Vis(m), Cloud(base in m), Weather
  local        km/h                         9am  last   hr   10m    
Wed 18:00    C  0/  0  13.6  9.5  ------    0.0   0.0   0.0   0.0   ----- 
Wed 18:30    C  0/  2  12.1  9.2  ------    0.0   0.0   0.0   0.0   ----- 
Wed 19:00    C  0/  2  11.8  9.6  ------    0.0   0.0   0.0   0.0   ----- 
Wed 19:30    C  0/  0  10.9  8.8  ------    0.0   0.0   0.0   0.0   ----- 
Wed 20:00    C  0/  0  10.8  9.0  ------    0.0   0.0   0.0   0.0   ----- 
Wed 20:30    C  0/  0  10.3  8.8  ------    0.0   0.0   0.0   0.0   ----- 
Wed 21:00    C  0/  2  10.3  9.4  ------    0.0   0.0   0.0   0.0   ----- 
Wed 21:30    C  0/  0  10.0  9.2  ------    0.0   0.0   0.0   0.0   ----- 
Wed 22:00    C  0/  0   9.2  8.5  ------    0.0   0.0   0.0   0.0   ----- 
Wed 22:30    C  0/  0   9.5  8.9  ------    0.0   0.0   0.0   0.0   ----- 

FRANKLAND

Site: 009GFR
Alt: 224 m
69km WNW of MOUNT BARKER


  Time     Wind        Temp  DP   Baro     Rain since   Rain past  Vis(m), Cloud(base in m), Weather
  local        km/h                         9am  last   hr   10m    
Wed 18:00    S  4/  7  11.9 11.3  ------    5.0   0.0   0.0   0.0   ----- 
Wed 18:30    S  2/  6  11.8 11.3  ------    5.0   0.0   0.0   0.0   ----- 
Wed 19:00    S  2/  4  11.6 11.2  ------    5.0   0.0   0.0   0.0   ----- 
Wed 19:30    C  0/  2  10.8 10.5  ------    5.0   0.0   0.0   0.0   ----- 
Wed 20:00  SSW  2/  2  10.4 10.2  ------    5.0   0.0   0.0   0.0   ----- 
Wed 20:30   SW  2/  4   9.6  9.5  ------    5.0   0.0   0.0   0.0   ----- 
Wed 21:00  SSW  2/  6   9.4  9.4  ------    5.0   0.0   0.0   0.0   ----- 
Wed 21:30  NNW  2/  4   7.8  7.8  ------    5.0   0.0   0.0   0.0   ----- 
Wed 22:00  NNW  2/  4   8.6  8.6  ------    5.0   0.0   0.0   0.0   ----- 
Wed 22:30  NNW  2/  2   8.3  8.3  ------    5.0   0.0   0.0   0.0   ----- 
Wed 23:00    C  0/  2   7.8  7.8  ------    5.0   0.0   0.0   0.0   ----- 

GARDEN ISLAND HSF

Site: 009256
Alt: 6.0m
32km N of MANDURAH


  Time     Wind        Temp  DP   Baro     Rain since   Rain past  Vis(m), Cloud(base in m), Weather
  local        km/h                         9am  last   hr   10m    
Wed 18:00  SSW  9/ 15  16.4 11.8  1027.0    0.0   0.0   0.0   0.0   ----- 
Wed 18:30    S 17/ 20  16.8 11.7  1027.4    0.0   0.0   0.0   0.0   ----- 
Wed 19:00    S 17/ 20  17.0 12.5  1027.7    0.0   0.0   0.0   0.0   ----- 
Wed 19:30   SE 13/ 15  16.2 12.4  1028.2    0.0   0.0   0.0   0.0   ----- 
Wed 20:00   SE 13/ 15  15.8 12.9  1028.6    0.0   0.0   0.0   0.0   ----- 
Wed 20:30   SE 13/ 15  15.5 12.6  1029.0    0.0   0.0   0.0   0.0   ----- 
Wed 21:00   SE 13/ 17  15.2 12.0  1029.0    0.0   0.0   0.0   0.0   ----- 
Wed 21:30  ESE 13/ 17  14.0 11.9  1029.2    0.0   0.0   0.0   0.0   ----- 
Wed 22:00   SE 15/ 20  14.4 12.1  1029.4    0.0   0.0   0.0   0.0   ----- 
Wed 22:30   SE 17/ 20  14.2 11.7  1029.7    0.0   0.0   0.0   0.0   ----- 
Wed 23:00   SE 17/ 20  13.6 11.3  1029.9    0.0   0.0   0.0   0.0   ----- 

GINGIN AERO

Site: 009178
Alt: 73.0m
54km N of PERTH CBD


  Time     Wind        Temp  DP   Baro     Rain since   Rain past  Vis(m), Cloud(base in m), Weather
  local        km/h                         9am  last   hr   10m    
Wed 18:00   SW  9/  9  12.8  9.1  1026.9    0.0   0.0   0.0   0.0   ----- 
Wed 18:30   SW  9/  9  11.6  8.8  1027.2    0.0   0.0   0.0   0.0   ----- 
Wed 19:00  SSW  9/ 11  11.0  8.6  1027.6    0.0   0.0   0.0   0.0   ----- 
Wed 19:30  SSW  9/ 11  10.3  8.1  1028.0    0.0   0.0   0.0   0.0   ----- 
Wed 20:00    S  9/ 11   9.9  7.8  1028.4    0.0   0.0   0.0   0.0   ----- 
Wed 20:30  ESE  7/  7   9.7  8.0  1028.9    0.0   0.0   0.0   0.0   ----- 
Wed 21:00  ESE  7/  7   8.9  7.2  1029.0    0.0   0.0   0.0   0.0   ----- 
Wed 21:30    C  0/  0   8.9  7.4  1029.2    0.0   0.0   0.0   0.0   ----- 
Wed 22:00    C  0/  0   8.0  6.5  1029.2    0.0   0.0   0.0   0.0   ----- 
Wed 22:30    C  0/  0   7.7  6.3  1029.3    0.0   0.0   0.0   0.0   ----- 
Wed 23:00    C  0/  0   6.3  4.8  1029.4    0.0   0.0   0.0   0.0   ----- 

GINGIN WEST AG STATION

Site: 009GNW
Alt: m
km of


  Time     Wind        Temp  DP   Baro     Rain since   Rain past  Vis(m), Cloud(base in m), Weather
  local        km/h                         9am  last   hr   10m    
Wed 18:00    S  2/  4  13.2 10.0  ------    0.0   0.0   0.0   0.0   ----- 
Wed 18:30   SW  2/  6  13.2  9.8  ------    0.0   0.0   0.0   0.0   ----- 
Wed 19:00    S  4/  4  12.7  9.6  ------    0.0   0.0   0.0   0.0   ----- 
Wed 19:30  SSE  4/  7  13.1  9.5  ------    0.0   0.0   0.0   0.0   ----- 
Wed 20:00  SSE  4/  7  12.9  9.5  ------    0.0   0.0   0.0   0.0   ----- 
Wed 20:30    S  4/  9  12.7  9.7  ------    0.0   0.0   0.0   0.0   ----- 
Wed 21:00   SE  4/  7  12.3  9.6  ------    0.0   0.0   0.0   0.0   ----- 
Wed 21:30   NE  2/  6  10.5  9.1  ------    0.0   0.0   0.0   0.0   ----- 
Wed 22:00    E  6/  9  10.9  9.3  ------    0.0   0.0   0.0   0.0   ----- 
Wed 22:30    E  6/  7  10.9  9.3  ------    0.0   0.0   0.0   0.0   ----- 

GOOSEBERRY HILL

Site: 009204
Alt: 220.0m
18km E of PERTH CBD


  Time     Wind        Temp  DP   Baro     Rain since   Rain past  Vis(m), Cloud(base in m), Weather
  local        km/h                         9am  last   hr   10m    
Wed 18:00  SSW 13/ 20  14.2  9.2  ------   ----  ----  ----  ----   ----- 
Wed 18:30  SSW 13/ 19  13.9  9.3  ------   ----  ----  ----  ----   ----- 
Wed 19:00  SSW 11/ 17  13.7  9.6  ------   ----  ----  ----  ----   ----- 
Wed 19:30    S 13/ 19  13.6  9.6  ------   ----  ----  ----  ----   ----- 
Wed 20:00    S 15/ 22  13.6  9.6  ------   ----  ----  ----  ----   ----- 
Wed 20:30    S 17/ 24  13.6  9.8  ------   ----  ----  ----  ----   ----- 
Wed 21:00    S 15/ 24  13.6  9.8  ------   ----  ----  ----  ----   ----- 
Wed 21:30  SSE 15/ 24  13.3  9.9  ------   ----  ----  ----  ----   ----- 
Wed 22:00   SE 13/ 20  12.2  9.8  ------   ----  ----  ----  ----   ----- 
Wed 22:30  ESE 17/ 28  12.5  9.7  ------   ----  ----  ----  ----   ----- 
Wed 23:00  ESE 17/ 30  12.0  9.6  ------   ----  ----  ----  ----   ----- 

HARVEY

Site: 009GHV
Alt: 38 m
35km NE of BUNBURY


  Time     Wind        Temp  DP   Baro     Rain since   Rain past  Vis(m), Cloud(base in m), Weather
  local        km/h                         9am  last   hr   10m    
Wed 18:00    S  2/---  12.3  9.4  ------    0.0   0.0   0.0   0.0   ----- 
Wed 18:30    S  2/---  11.5  9.7  ------    0.0   0.0   0.0   0.0   ----- 
Wed 19:00  ESE  2/---  11.8 10.2  ------    0.0   0.0   0.0   0.0   ----- 
Wed 19:30  SSE  2/---  12.1  9.8  ------    0.0   0.0   0.0   0.0   ----- 
Wed 20:00   SE  2/---  11.8  9.6  ------    0.0   0.0   0.0   0.0   ----- 
Wed 20:30   SE  2/---  11.6  9.5  ------    0.0   0.0   0.0   0.0   ----- 
Wed 21:00  SSE  4/---  11.8  9.4  ------    0.0   0.0   0.0   0.0   ----- 
Wed 21:30   SE  2/---  11.4  9.0  ------    0.0   0.0   0.0   0.0   ----- 
Wed 22:00    E  2/---  10.5  8.4  ------    0.0   0.0   0.0   0.0   ----- 
Wed 22:30  ESE  2/---  10.6  8.7  ------    0.0   0.0   0.0   0.0   ----- 

HILLARYS BOAT HARBOUR NTC AWS

Site: 009265
Alt: 0.0m
18km NW of PERTH CBD


  Time     Wind        Temp  DP   Baro     Rain since   Rain past  Vis(m), Cloud(base in m), Weather
  local        km/h                         9am  last   hr   10m    

Wed 18:00  SSW  6/  9  17.0----  1026.3   ----  ----  ----  ----   ----- 
Wed 18:30    S  6/  9  16.9----  1026.6   ----  ----  ----  ----   ----- 
Wed 19:00    S  4/  9  16.6----  1027.1   ----  ----  ----  ----   ----- 
Wed 19:30    E  2/  6  15.4----  1027.4   ----  ----  ----  ----   ----- 
Wed 20:00  SSE  7/ 11  16.1----  1027.9   ----  ----  ----  ----   ----- 
Wed 20:30  ESE  4/  9  15.6----  1028.2   ----  ----  ----  ----   ----- 
Wed 21:00    E  2/  4  14.9----  1028.4   ----  ----  ----  ----   ----- 
Wed 21:30    C  0/  4  14.5----  1028.5   ----  ----  ----  ----   ----- 
Wed 22:00    E  2/  7  14.3----  1028.6   ----  ----  ----  ----   ----- 
Wed 22:30  ENE  6/  9  13.1----  1028.8   ----  ----  ----  ----   ----- 
Wed 23:00  ENE  6/  9  13.3----  1028.8   ----  ----  ----  ----   ----- 

HOPETOUN NORTH

Site: 009961
Alt: 26.0m
39km S of RAVENSTHORPE


  Time     Wind        Temp  DP   Baro     Rain since   Rain past  Vis(m), Cloud(base in m), Weather
  local        km/h                         9am  last   hr   10m    
Wed 18:00   SW 22/ 35  13.8 12.9  1024.9    1.4   1.4   1.4   1.4   ----- 
Wed 18:30    S 20/ 30  14.3 12.3  1025.4    1.8   0.4   1.8   0.0   ----- 
Wed 19:00    S 22/ 33  13.9 11.8  1025.9    1.8   0.0   0.4   0.0   ----- 
Wed 19:30    S 24/ 35  13.4 12.3  1026.5    2.2   0.4   0.4   0.0   ----- 
Wed 20:00    S 22/ 33  13.9 11.6  1026.9    2.2   0.0   0.4   0.0   ----- 
Wed 20:30    S 22/ 32  14.2 11.0  1027.3    2.2   0.0   0.0   0.0   ----- 
Wed 21:00    S 24/ 33  14.2  9.8  1027.7    2.2   0.0   0.0   0.0   ----- 
Wed 21:30    S 22/ 35  14.2  9.6  1028.1    2.2   0.0   0.0   0.0   ----- 
Wed 22:00    S 22/ 33  14.0  8.4  1028.4    2.2   0.0   0.0   0.0   ----- 
Wed 22:30    S 22/ 30  13.9  8.1  1028.6    2.2   0.0   0.0   0.0   ----- 
Wed 23:00    S 20/ 32  13.8  7.6  1028.7    2.2   0.0   0.0   0.0   ----- 

INNER DOLPHIN PYLON

Site: 009091
Alt: 0.0m
5km SSW of PERTH CBD


  Time     Wind        Temp  DP   Baro     Rain since   Rain past  Vis(m), Cloud(base in m), Weather
  local        km/h                         9am  last   hr   10m    
Wed 18:00   SW  9/ 11 --------  ------   ----  ----  ----  ----   ----- 
Wed 18:30  SSW 11/ 13 --------  ------   ----  ----  ----  ----   ----- 
Wed 19:00    S  9/ 11 --------  ------   ----  ----  ----  ----   ----- 
Wed 19:30    S  9/ 11 --------  ------   ----  ----  ----  ----   ----- 
Wed 20:00   SE  6/  7 --------  ------   ----  ----  ----  ----   ----- 
Wed 20:30  SSE  6/  7 --------  ------   ----  ----  ----  ----   ----- 
Wed 21:00  ESE  9/ 11 --------  ------   ----  ----  ----  ----   ----- 
Wed 21:30   SE  7/  9 --------  ------   ----  ----  ----  ----   ----- 
Wed 22:00   SE  9/ 11 --------  ------   ----  ----  ----  ----   ----- 
Wed 22:30  ESE  7/  9 --------  ------   ----  ----  ----  ----   ----- 
Wed 23:00    E  6/  7 --------  ------   ----  ----  ----  ----   ----- 

JANDAKOT AERO

Site: 009172
Alt: 30.0m
17km S of PERTH CBD


  Time     Wind        Temp  DP   Baro     Rain since   Rain past  Vis(m), Cloud(base in m), Weather
  local        km/h                         9am  last   hr   10m    
Wed 18:00   SW 11/ 13  13.7 11.0  1026.7    0.0   0.0   0.0   0.0   10000 
Wed 18:30   SW  7/  9  13.3 10.8  1027.2    0.0   0.0   0.0   0.0   10000 
Wed 19:00  SSW  7/  7  12.0 10.1  1027.6    0.0   0.0   0.0   0.0   10000 
Wed 19:30  SSW  9/ 11  11.0  9.8  1028.1    0.0   0.0   0.0   0.0   10000 
Wed 20:00  SSE 11/ 11  10.7 10.2  1028.5    0.0   0.0   0.0   0.0   10000 
Wed 20:30  SSE  9/ 11  10.3  9.7  1028.8    0.0   0.0   0.0   0.0   10000 
Wed 21:00  SSE  6/  9   9.5  8.9  1029.0    0.0   0.0   0.0   0.0   10000 
Wed 21:30    C  0/  0   9.8  9.5  1029.0    0.0   0.0   0.0   0.0   10000 
Wed 22:00  SSE  6/  7   9.2  8.9  1029.2    0.0   0.0   0.0   0.0   10000 
Wed 22:30    C  0/  0   8.6  8.5  1029.4    0.0   0.0   0.0   0.0    8000 
Wed 23:00   SE  6/ 11   8.0  7.9  1029.5    0.0   0.0   0.0   0.0   10000 

JURIEN BAY AG STATION

Site: 009URB
Alt: 80m
17km E of JURIEN BAY


  Time     Wind        Temp  DP   Baro     Rain since   Rain past  Vis(m), Cloud(base in m), Weather
  local        km/h                         9am  last   hr   10m    
Wed 18:00  ESE  4/  7  15.2 10.9  ------    0.0   0.0   0.0   0.0   ----- 
Wed 18:30    C  0/  4  14.6 11.1  ------    0.0   0.0   0.0   0.0   ----- 
Wed 19:00    C  0/  2  14.1 10.8  ------    0.0   0.0   0.0   0.0   ----- 
Wed 19:30  ENE  2/  4  13.2 10.9  ------    0.0   0.0   0.0   0.0   ----- 
Wed 20:00    E  2/  4  13.9 10.5  ------    0.0   0.0   0.0   0.0   ----- 
Wed 20:30  ESE  2/  4  13.2 10.4  ------    0.0   0.0   0.0   0.0   ----- 
Wed 21:00   NE  2/  2  12.6 10.3  ------    0.0   0.0   0.0   0.0   ----- 
Wed 21:30   SE  2/  4  11.9 10.3  ------    0.0   0.0   0.0   0.0   ----- 
Wed 22:00  ENE  2/  6  11.8 10.3  ------    0.0   0.0   0.0   0.0   ----- 
Wed 22:30  ENE  2/  6  11.8 10.0  ------    0.0   0.0   0.0   0.0   ----- 
Wed 23:00  ENE  4/  6  11.9  9.9  ------    0.0   0.0   0.0   0.0   ----- 

LANCELIN (DEFENCE)

Site: 009280
Alt: 3.4m
km of


  Time     Wind        Temp  DP   Baro     Rain since   Rain past  Vis(m), Cloud(base in m), Weather
  local        km/h                         9am  last   hr   10m    
Wed 18:00  ESE  6/  7  12.9  9.5  1026.4    0.0   0.0   0.0   0.0   ----- 
Wed 18:30    C  0/  4  11.2  8.4  1026.7    0.0   0.0   0.0   0.0   ----- 
Wed 19:00    E  4/  6  10.8  8.7  1027.2    0.0   0.0   0.0   0.0   ----- 
Wed 19:30    C  0/  6   9.1  7.4  1027.6    0.0   0.0   0.0   0.0   ----- 
Wed 20:00    E  6/  7  10.2  9.0  1027.8    0.0   0.0   0.0   0.0   ----- 
Wed 20:30  ENE  7/  9  10.4  9.5  1028.1    0.0   0.0   0.0   0.0   ----- 
Wed 21:00    E  9/ 13  11.5 10.1  1028.3    0.0   0.0   0.0   0.0   ----- 
Wed 21:30    E 11/ 15  12.4 10.1  1028.5    0.0   0.0   0.0   0.0   ----- 
Wed 22:00    E 11/ 13  12.7 10.4  1028.5    0.0   0.0   0.0   0.0   ----- 
Wed 22:30  ENE  9/ 13  11.5  9.4  1028.6    0.0   0.0   0.0   0.0   ----- 
Wed 23:00    E  9/ 13  11.6  9.5  1028.7    0.0   0.0   0.0   0.0   ----- 

LANCELIN EAST AG STATION

Site: 009GLE
Alt: m
km of


  Time     Wind        Temp  DP   Baro     Rain since   Rain past  Vis(m), Cloud(base in m), Weather
  local        km/h                         9am  last   hr   10m    
Wed 18:00    S  6/  9  13.0 10.7  ------    0.0   0.0   0.0   0.0   ----- 
Wed 18:30    S  6/  7  13.2 10.4  ------    0.0   0.0   0.0   0.0   ----- 
Wed 19:00    S  6/  9  12.1 10.5  ------    0.0   0.0   0.0   0.0   ----- 
Wed 19:30    S  7/  9  12.0 10.2  ------    0.0   0.0   0.0   0.0   ----- 
Wed 20:00  SSE  7/  9  12.6  9.5  ------    0.0   0.0   0.0   0.0   ----- 
Wed 20:30  SSE  7/  9  12.4  9.0  ------    0.0   0.0   0.0   0.0   ----- 
Wed 21:00  SSE  4/  7  11.9  8.8  ------    0.0   0.0   0.0   0.0   ----- 
Wed 21:30  ESE  4/  9  11.8  9.0  ------    0.2   0.2   0.2   0.2   ----- 
Wed 22:00  ESE  4/  7  10.2  8.9  ------    0.2   0.0   0.2   0.0   ----- 
Wed 22:30  ESE  2/  6   9.6  8.9  ------    0.2   0.0   0.0   0.0   ----- 

MANDURAH

Site: 009977
Alt: 3.0m
1km NW of MANDURAH


  Time     Wind        Temp  DP   Baro     Rain since   Rain past  Vis(m), Cloud(base in m), Weather
  local        km/h                         9am  last   hr   10m    
Wed 18:00  SSW  2/  4  15.0 10.4  1026.7    0.0   0.0   0.0   0.0   ----- 
Wed 18:30    C  0/  0  14.7 10.5  1027.2    0.0   0.0   0.0   0.0   ----- 
Wed 19:00  SSW  2/  4  14.1 10.7  1027.6    0.0   0.0   0.0   0.0   ----- 
Wed 19:30  SSW  2/  4  14.1 11.1  1028.0    0.0   0.0   0.0   0.0   ----- 
Wed 20:00    C  0/  2  14.0 11.0  1028.4    0.0   0.0   0.0   0.0   ----- 
Wed 20:30    S  7/ 11  13.7 11.0  1028.8    0.0   0.0   0.0   0.0   ----- 
Wed 21:00   SE  6/  9  13.4 10.4  1029.0    0.0   0.0   0.0   0.0   ----- 
Wed 21:30   SE  6/  9  13.0 10.4  1029.2    0.0   0.0   0.0   0.0   ----- 
Wed 22:00   SE  9/ 11  12.8 10.2  1029.4    0.0   0.0   0.0   0.0   ----- 
Wed 22:30   SE 11/ 15  13.0 10.2  1029.6    0.0   0.0   0.0   0.0   ----- 
Wed 23:00   SE  7/ 11  12.8 10.0  1029.8    0.0   0.0   0.0   0.0   ----- 

MANJIMUP

Site: 009573
Alt: 286.7m
1km S of MANJIMUP


  Time     Wind        Temp  DP   Baro     Rain since   Rain past  Vis(m), Cloud(base in m), Weather
  local        km/h                         9am  last   hr   10m    
Wed 18:00    S  9/ 13  11.7 10.8  1027.4    0.8   0.0   0.0   0.0   ----- 
Wed 18:30    S 13/ 15  11.3 10.4  1027.8    0.8   0.0   0.0   0.0   ----- 
Wed 19:00  SSE 11/ 13  10.8  9.9  1028.1    0.8   0.0   0.0   0.0   ----- 
Wed 19:30  SSE  9/ 13  10.2  9.3  1028.6    0.8   0.0   0.0   0.0   ----- 
Wed 20:00  SSE 11/ 13   9.6  8.8  1028.9    0.8   0.0   0.0   0.0   ----- 
Wed 20:30  SSE  7/  9   9.1  8.5  1029.4    0.8   0.0   0.0   0.0   ----- 
Wed 21:00  SSE  9/  9   8.5  7.9  1029.9    0.8   0.0   0.0   0.0   ----- 
Wed 21:30  SSE  7/  9   9.0  8.6  1030.2    0.8   0.0   0.0   0.0   ----- 
Wed 22:00  SSE  7/  9   9.1  8.8  1030.3    0.8   0.0   0.0   0.0   ----- 
Wed 22:30  SSE  7/ 11   9.4  9.1  1030.4    0.8   0.0   0.0   0.0   ----- 
Wed 23:00  SSE  6/  7   9.2  8.9  1030.5    0.8   0.0   0.0   0.0   ----- 

MANJIMUP AG STATION

Site: 009GMA
Alt: m
km of


  Time     Wind        Temp  DP   Baro     Rain since   Rain past  Vis(m), Cloud(base in m), Weather
  local        km/h                         9am  last   hr   10m    
Wed 18:00    S  2/  6  11.7 11.0  ------    1.0   0.0   0.0   0.0   ----- 
Wed 18:30    S  2/  4  11.3 10.7  ------    1.0   0.0   0.0   0.0   ----- 
Wed 19:00    S  2/  6  10.6  9.9  ------    1.0   0.0   0.0   0.0   ----- 
Wed 19:30    C  0/  4  10.3  9.7  ------    1.0   0.0   0.0   0.0   ----- 
Wed 20:00    C  0/  4   9.8  9.1  ------    1.0   0.0   0.0   0.0   ----- 
Wed 20:30    C  0/  4   9.4  8.8  ------    1.0   0.0   0.0   0.0   ----- 
Wed 21:00    C  0/  2   9.0  8.4  ------    1.0   0.0   0.0   0.0   ----- 
Wed 21:30    C  0/  0   9.3  8.7  ------    1.0   0.0   0.0   0.0   ----- 
Wed 22:00    W  2/  4   9.6  9.1  ------    1.0   0.0   0.0   0.0   ----- 
Wed 22:30    C  0/  2   9.6  9.1  ------    1.0   0.0   0.0   0.0   ----- 

MANYPEAKS AG STATION

Site: 009GMP
Alt: 124.0m
33km NE of ALBANY


  Time     Wind        Temp  DP   Baro     Rain since   Rain past  Vis(m), Cloud(base in m), Weather
  local        km/h                         9am  last   hr   10m    
Wed 18:00  SSW  2/  6  12.2 11.3  ------    3.2   0.0   0.2   0.0   ----- 
Wed 18:30    S  2/  6  12.0 11.2  ------    3.2   0.0   0.0   0.0   ----- 
Wed 19:00  WSW  2/  4  11.6 10.8  ------    3.2   0.0   0.0   0.0   ----- 
Wed 19:30  WSW  2/  6  11.5 10.8  ------    3.2   0.0   0.0   0.0   ----- 
Wed 20:00    C  0/  4  11.0 10.3  ------    3.2   0.0   0.0   0.0   ----- 
Wed 20:30    C  0/  2  10.7 10.2  ------    3.2   0.0   0.0   0.0   ----- 
Wed 21:00   NW  2/  4  10.0  9.6  ------    3.2   0.0   0.0   0.0   ----- 
Wed 21:30   NW  4/  6  10.0  9.6  ------    3.2   0.0   0.0   0.0   ----- 
Wed 22:00    C  0/  4   9.8  9.4  ------    3.2   0.0   0.0   0.0   ----- 
Wed 22:30    W  2/  4  10.0  9.6  ------    3.2   0.0   0.0   0.0   ----- 

MERREDIN AG STATION

Site: 009GME
Alt: m
km of


  Time     Wind        Temp  DP   Baro     Rain since   Rain past  Vis(m), Cloud(base in m), Weather
  local        km/h                         9am  last   hr   10m    
Wed 18:00    C  0/  4  11.2  5.8  ------    0.0   0.0   0.0   0.0   ----- 
Wed 18:30  NNE  2/  4   8.5  5.0  ------    0.0   0.0   0.0   0.0   ----- 
Wed 19:00  NNE  2/  4   7.8  5.2  ------    0.0   0.0   0.0   0.0   ----- 
Wed 19:30  NNE  2/  4   7.1  4.9  ------    0.0   0.0   0.0   0.0   ----- 
Wed 20:00  NNE  2/  4   6.5  4.6  ------    0.0   0.0   0.0   0.0   ----- 
Wed 20:30    C  0/  4   6.1  4.7  ------    0.0   0.0   0.0   0.0   ----- 
Wed 21:00  NNE  2/  4   5.6  4.4  ------    0.0   0.0   0.0   0.0   ----- 
Wed 21:30    C  0/  2   5.3  4.4  ------    0.0   0.0   0.0   0.0   ----- 
Wed 22:00    C  0/  2   4.9  4.0  ------    0.0   0.0   0.0   0.0   ----- 
Wed 22:30    C  0/  2   5.4  4.7  ------    0.0   0.0   0.0   0.0   ----- 
Wed 23:00    C  0/  2   6.8  5.9  ------    0.0   0.0   0.0   0.0   ----- 

MILLENDON (SWAN VALLEY)

Site: 009281
Alt: 15.6m
km of


  Time     Wind        Temp  DP   Baro     Rain since   Rain past  Vis(m), Cloud(base in m), Weather
  local        km/h                         9am  last   hr   10m    
Wed 18:00    C  0/  0  13.0  9.6  1026.6    0.0   0.0   0.0   0.0   ----- 
Wed 18:30    C  0/  0  11.2  8.9  1027.1    0.0   0.0   0.0   0.0   ----- 
Wed 19:00    C  0/  0  11.3  9.4  1027.5    0.0   0.0   0.0   0.0   ----- 
Wed 19:30    C  0/  0  10.2  8.6  1027.9    0.0   0.0   0.0   0.0   ----- 
Wed 20:00    C  0/  0  10.1  8.9  1028.4    0.0   0.0   0.0   0.0   ----- 
Wed 20:30    C  0/  0   9.5  8.4  1028.7    0.0   0.0   0.0   0.0   ----- 
Wed 21:00    C  0/  0   9.3  8.4  1028.9    0.0   0.0   0.0   0.0   ----- 
Wed 21:30    C  0/  0   9.1  8.2  1029.0    0.0   0.0   0.0   0.0   ----- 
Wed 22:00    C  0/  0   8.8  8.0  1029.1    0.0   0.0   0.0   0.0   ----- 
Wed 22:30    C  0/  0   8.1  7.3  1029.3    0.0   0.0   0.0   0.0   ----- 
Wed 23:00    C  0/  0   7.5  6.8  1029.3    0.0   0.0   0.0   0.0   ----- 

MOUNT BARKER AG STATION

Site: 009GMB
Alt: m
km of


  Time     Wind        Temp  DP   Baro     Rain since   Rain past  Vis(m), Cloud(base in m), Weather
  local        km/h                         9am  last   hr   10m    
Wed 18:00    S  7/  9  11.8 10.7  ------    3.8   0.0   0.0   0.0   ----- 
Wed 18:30    S  6/  9  11.4  9.8  ------    3.8   0.0   0.0   0.0   ----- 
Wed 19:00  SSW  4/  9  11.4  9.6  ------    3.8   0.0   0.0   0.0   ----- 
Wed 19:30   SW  4/  7  10.8  9.0  ------    3.8   0.0   0.0   0.0   ----- 
Wed 20:00   SW  4/  7  10.6  8.9  ------    3.8   0.0   0.0   0.0   ----- 
Wed 20:30   SW  4/  7  10.4  8.4  ------    3.8   0.0   0.0   0.0   ----- 
Wed 21:00    C  0/  4  10.3  8.6  ------    3.8   0.0   0.0   0.0   ----- 
Wed 21:30    N  2/  2   9.4  8.4  ------    3.8   0.0   0.0   0.0   ----- 
Wed 22:00    N  2/  4   8.9  8.2  ------    3.8   0.0   0.0   0.0   ----- 
Wed 22:30    N  2/  4   8.2  7.6  ------    3.8   0.0   0.0   0.0   ----- 

MOUNT HOWICK AG STATION

Site: 009GHO
Alt: 120 m
78km ENE of ESPERANCE


  Time     Wind        Temp  DP   Baro     Rain since   Rain past  Vis(m), Cloud(base in m), Weather
  local        km/h                         9am  last   hr   10m    
Wed 18:00    W  6/  9  12.5 11.0  ------    0.6   0.0   0.0   0.0   ----- 
Wed 18:30    W  9/ 13  11.8 10.5  ------    0.6   0.0   0.0   0.0   ----- 
Wed 19:00    W  9/ 11  11.2 10.1  ------    0.6   0.0   0.0   0.0   ----- 
Wed 19:30  WNW 11/ 15  11.1 10.3  ------    0.6   0.0   0.0   0.0   ----- 
Wed 20:00   SW  9/ 13  11.8 11.0  ------    0.6   0.0   0.0   0.0   ----- 
Wed 20:30   SW  9/ 15  11.6 10.6  ------    0.6   0.0   0.0   0.0   ----- 
Wed 21:00  WSW  4/  7  11.5 10.7  ------    1.0   0.4   0.4   0.2   ----- 
Wed 21:30    W  7/  9  11.2 10.8  ------    1.6   0.6   1.0   0.0   ----- 
Wed 22:00  WSW  7/ 11  11.3 11.0  ------    1.6   0.0   0.6   0.0   ----- 
Wed 22:30   SW  9/ 15  11.2 10.9  ------    1.6   0.0   0.0   0.0   ----- 
Wed 23:00   SW 13/ 17  10.3  9.6  ------    1.6   0.0   0.0   0.0   ----- 

MYALUP AG STATION

Site: 009GMY
Alt: m
km of


  Time     Wind        Temp  DP   Baro     Rain since   Rain past  Vis(m), Cloud(base in m), Weather
  local        km/h                         9am  last   hr   10m    
Wed 18:00    C  0/  0  13.2 11.2  ------    0.0   0.0   0.0   0.0   ----- 
Wed 18:30    C  0/  4  13.4 11.9  ------    0.0   0.0   0.0   0.0   ----- 
Wed 19:00    C  0/  6  13.5 11.5  ------    0.0   0.0   0.0   0.0   ----- 
Wed 19:30  SSE  6/ 11  13.1 10.9  ------    0.0   0.0   0.0   0.0   ----- 
Wed 20:00   SE  4/  7  12.6 10.9  ------    0.0   0.0   0.0   0.0   ----- 
Wed 20:30  ESE  2/  4  12.3 10.5  ------    0.0   0.0   0.0   0.0   ----- 
Wed 21:00  ESE  2/  4  11.9 10.3  ------    0.0   0.0   0.0   0.0   ----- 
Wed 21:30   SE  2/  6  11.4 10.0  ------    0.0   0.0   0.0   0.0   ----- 
Wed 22:00    C  0/  2  10.8  9.7  ------    0.0   0.0   0.0   0.0   ----- 
Wed 22:30    C  0/  2   9.4  8.5  ------    0.0   0.0   0.0   0.0   ----- 

NEW NORCIA AG STATION

Site: 009NCA
Alt: 260m
12km S of NEW NORCIA


  Time     Wind        Temp  DP   Baro     Rain since   Rain past  Vis(m), Cloud(base in m), Weather
  local        km/h                         9am  last   hr   10m    
Wed 18:00  SSW  4/  6  13.6  9.9  ------    0.0   0.0   0.0   0.0   ----- 
Wed 18:30   SW  6/  7  12.9  9.1  ------    0.0   0.0   0.0   0.0   ----- 
Wed 19:00  SSW  6/  7  12.2  8.8  ------    0.0   0.0   0.0   0.0   ----- 
Wed 19:30  SSW  4/  7  11.8  8.4  ------    0.0   0.0   0.0   0.0   ----- 
Wed 20:00  SSW  6/  6  11.5  8.3  ------    0.0   0.0   0.0   0.0   ----- 
Wed 20:30    S  2/  4   9.9  8.1  ------    0.0   0.0   0.0   0.0   ----- 
Wed 21:00    S  4/  6  10.6  8.2  ------    0.0   0.0   0.0   0.0   ----- 
Wed 21:30    S  6/  7  10.3  8.1  ------    0.0   0.0   0.0   0.0   ----- 
Wed 22:00    S  4/  7   9.9  7.7  ------    0.0   0.0   0.0   0.0   ----- 
Wed 22:30    S  4/  6   9.3  7.9  ------    0.0   0.0   0.0   0.0   ----- 

NORTH WALPOLE

Site: 009998
Alt: 73.0m
95km SE of MANJIMUP


  Time     Wind        Temp  DP   Baro     Rain since   Rain past  Vis(m), Cloud(base in m), Weather
  local        km/h                         9am  last   hr   10m    
Wed 18:00  SSW  9/ 15  12.2  7.9  1027.2    8.4   0.0   0.0   0.0   ----- 
Wed 18:30  SSW  7/ 13  12.0  7.3  1027.4    8.4   0.0   0.0   0.0   ----- 
Wed 19:00   SW  6/ 11  12.1  7.2  1027.8    8.4   0.0   0.0   0.0   ----- 
Wed 19:30    C  0/  6  11.6  6.9  1028.1    8.4   0.0   0.0   0.0   ----- 
Wed 20:00   SE  6/  9  11.1  7.0  1028.5    8.4   0.0   0.0   0.0   ----- 
Wed 20:30    C  0/  0  11.2  7.1  1028.8    8.4   0.0   0.0   0.0   ----- 
Wed 21:00    C  0/  0  11.1  7.0  1029.2    8.4   0.0   0.0   0.0   ----- 
Wed 21:30  ESE  2/  6  11.1  7.6  1029.5    8.4   0.0   0.0   0.0   ----- 
Wed 22:00    C  0/  0  11.3  7.4  1029.4    8.4   0.0   0.0   0.0   ----- 
Wed 22:30  SSE  2/  6  10.3  7.4  1029.7    8.4   0.0   0.0   0.0   ----- 
Wed 23:00    C  0/  0  10.1  7.7  1029.6    8.4   0.0   0.0   0.0   ----- 

OCEAN REEF

Site: 009214
Alt: 10.0m
25km NNW of PERTH CBD


  Time     Wind        Temp  DP   Baro     Rain since   Rain past  Vis(m), Cloud(base in m), Weather
  local        km/h                         9am  last   hr   10m    
Wed 18:00  SSW 13/ 17 --------  ------   ----  ----  ----  ----   ----- 
Wed 18:30  SSE 11/ 13 --------  ------   ----  ----  ----  ----   ----- 
Wed 19:00  SSE 13/ 15 --------  ------   ----  ----  ----  ----   ----- 
Wed 19:30   SE 13/ 15 --------  ------   ----  ----  ----  ----   ----- 
Wed 20:00   SE 15/ 17 --------  ------   ----  ----  ----  ----   ----- 
Wed 20:30  ESE 15/ 17 --------  ------   ----  ----  ----  ----   ----- 
Wed 21:00   SE 15/ 17 --------  ------   ----  ----  ----  ----   ----- 
Wed 21:30  ESE 15/ 17 --------  ------   ----  ----  ----  ----   ----- 
Wed 22:00  ESE 13/ 17 --------  ------   ----  ----  ----  ----   ----- 
Wed 22:30  ESE 15/ 17 --------  ------   ----  ----  ----  ----   ----- 
Wed 23:00  ESE 15/ 19 --------  ------   ----  ----  ----  ----   ----- 

PEARCE RAAF

Site: 009053
Alt: 40.0m
35km NNE of PERTH CBD


  Time     Wind        Temp  DP   Baro     Rain since   Rain past  Vis(m), Cloud(base in m), Weather
  local        km/h                         9am  last   hr   10m    
Wed 18:00  SSW  4/  7  14.4  8.6  1026.7    0.0   0.0   0.0   0.0   10000 
Wed 18:30  SSW  7/  9  13.9  8.7  1027.2    0.0   0.0   0.0   0.0   10000 
Wed 19:00  SSE  9/  9  13.5  9.2  1027.6    0.0   0.0   0.0   0.0   10000 
Wed 19:30  SSE  4/  6  12.5  8.6  1028.0    0.0   0.0   0.0   0.0   10000 
Wed 20:00    C  0/  0  12.1  8.8  1028.4    0.0   0.0   0.0   0.0   10000 
Wed 20:30    C  0/  0  10.5  8.6  1028.8    0.0   0.0   0.0   0.0   10000 
Wed 21:00    C  0/  0  10.6  8.9  1029.0    0.0   0.0   0.0   0.0   10000 
Wed 21:30    C  0/  0  10.1  7.9  1029.0    0.0   0.0   0.0   0.0   10000 
Wed 22:00    C  0/  0   9.4  8.0  1029.3    0.0   0.0   0.0   0.0   10000 
Wed 22:30    C  0/  0   8.8  7.4  1029.3    0.0   0.0   0.0   0.0   10000 
Wed 23:00    C  0/  0   8.4  7.2  1029.4    0.0   0.0   0.0   0.0   10000 

PEMBERTON AG STATION

Site: 009GPM
Alt: m
km of


  Time     Wind        Temp  DP   Baro     Rain since   Rain past  Vis(m), Cloud(base in m), Weather
  local        km/h                         9am  last   hr   10m    
Wed 18:00  SSE  6/  9  12.1 10.6  ------    3.4   0.0   0.0   0.0   ----- 
Wed 18:30   SE  6/ 13  11.8 10.1  ------    3.4   0.0   0.0   0.0   ----- 
Wed 19:00   SE  6/ 11  11.0  9.5  ------    3.4   0.0   0.0   0.0   ----- 
Wed 19:30   SE  6/  9  10.6  9.3  ------    3.4   0.0   0.0   0.0   ----- 
Wed 20:00  SSE  4/ 11   9.5  8.5  ------    3.4   0.0   0.0   0.0   ----- 
Wed 20:30   SE  2/  6   8.4  7.5  ------    3.4   0.0   0.0   0.0   ----- 
Wed 21:00  ENE  2/  4   8.2  7.5  ------    3.4   0.0   0.0   0.0   ----- 
Wed 21:30  SSE  6/  7   8.0  7.4  ------    3.4   0.0   0.0   0.0   ----- 
Wed 22:00  SSE  4/  9   8.3  7.7  ------    3.4   0.0   0.0   0.0   ----- 
Wed 22:30  NNE  6/  7   8.3  7.8  ------    3.4   0.0   0.0   0.0   ----- 

PERTH AIRPORT

Site: 009021
Alt: 15.4m
11km ENE of PERTH CBD


  Time     Wind        Temp  DP   Baro     Rain since   Rain past  Vis(m), Cloud(base in m), Weather
  local        km/h                         9am  last   hr   10m    
Wed 18:00  WSW 11/ 13  14.2  9.2  1026.6    0.2   0.0   0.0   0.0   10000 
Wed 18:30   SW 11/ 15  13.6  9.6  1027.0    0.2   0.0   0.0   0.0   10000 
Wed 19:00  SSW  9/ 13  12.8  9.6  1027.5    0.2   0.0   0.0   0.0   10000 
Wed 19:30    S 11/ 13  11.4  8.8  1027.8    0.2   0.0   0.0   0.0   10000 
Wed 20:00    S 11/ 13  10.9  9.0  1028.4    0.2   0.0   0.0   0.0   10000 
Wed 20:30    S  7/  9   9.9  8.3  1028.6    0.2   0.0   0.0   0.0   10000 
Wed 21:00   NE  4/  9   9.2  8.0  1028.8    0.2   0.0   0.0   0.0   10000 
Wed 21:30    C  0/  0   8.7  7.6  1028.9    0.2   0.0   0.0   0.0  *10000|FE1440sc 
Wed 22:00  NNE  9/ 11   8.3  7.4  1029.1    0.2   0.0   0.0   0.0   10000 
Wed 22:30    C  0/  7   8.0  7.1  1029.3    0.2   0.0   0.0   0.0   10000 
Wed 23:00    C  0/  0   7.5  6.6  1029.3    0.2   0.0   0.0   0.0    9000 

PERTH METRO

Site: 009225
Alt: 24.9m
4km NNE of PERTH CBD


  Time     Wind        Temp  DP   Baro     Rain since   Rain past  Vis(m), Cloud(base in m), Weather
  local        km/h                         9am  last   hr   10m    
Wed 18:00  WSW  6/  9  14.1 10.1  1026.8   ----  ----  ----   0.0   ----- 
Wed 18:30    C  0/  0  12.9 10.3  1027.2   ----  ----  ----   0.0   ----- 
Wed 19:00  WSW  2/  6  12.2 10.1  1027.6   ----  ----  ----   0.0   ----- 
Wed 19:30  WSW  6/  7  11.8 10.4  1027.9   ----  ----  ----   0.0   ----- 
Wed 20:00    C  0/  0  11.0  9.8  1028.6   ----  ----  ----   0.0   ----- 
Wed 20:30    C  0/  0  10.8  9.9  1028.8   ----  ----  ----   0.0   ----- 
Wed 21:00    C  0/  0  10.5  9.9  1029.0   ----  ----  ----   0.0   ----- 
Wed 21:30    C  0/  0   9.8  9.2  1029.1   ----  ----  ----   0.0   ----- 
Wed 22:00    C  0/  0   9.4  8.9  1029.2   ----  ----  ----   0.0   ----- 
Wed 22:30    C  0/  0   9.1  8.8  1029.4   ----  ----  ----   0.0   ----- 
Wed 23:00    C  0/  0   8.6  8.3  1029.5   ----  ----  ----   0.0   ----- 

ROCKY GULLY

Site: 009964
Alt: 250.0m
87km ESE of MANJIMUP


  Time     Wind        Temp  DP   Baro     Rain since   Rain past  Vis(m), Cloud(base in m), Weather
  local        km/h                         9am  last   hr   10m    
Wed 18:00    C  0/  6  11.2 10.1  ------    4.6   0.2   0.2   0.0   ----- 
Wed 18:30    C  0/  6  10.8  9.7  ------    4.6   0.0   0.2   0.0   ----- 
Wed 19:00   SE  4/  7  10.4  9.3  ------    4.6   0.0   0.0   0.0   ----- 
Wed 19:30    C  0/  0   9.6  8.5  ------    4.6   0.0   0.0   0.0   ----- 
Wed 20:00    C  0/  0   9.0  7.9  ------    4.6   0.0   0.0   0.0   ----- 
Wed 20:30    C  0/  0   8.6  7.5  ------    4.6   0.0   0.0   0.0   ----- 
Wed 21:00    C  0/  0   8.5  7.6  ------    4.6   0.0   0.0   0.0   ----- 
Wed 21:30    C  0/  0   8.2  7.3  ------    4.6   0.0   0.0   0.0   ----- 
Wed 22:00    C  0/  0   7.9  7.0  ------    4.6   0.0   0.0   0.0   ----- 
Wed 22:30    C  0/  0   7.6  6.7  ------    4.6   0.0   0.0   0.0   ----- 
Wed 23:00    C  0/  0   7.2  6.3  ------    4.6   0.0   0.0   0.0   ----- 

ROTTNEST ISLAND

Site: 009193
Alt: 43.1m
34km W of PERTH CBD


  Time     Wind        Temp  DP   Baro     Rain since   Rain past  Vis(m), Cloud(base in m), Weather
  local        km/h                         9am  last   hr   10m    
Wed 18:00    S 11/ 13  15.5 10.3  1026.7    0.2   0.0   0.0   0.0   ----- 
Wed 18:30  SSW 15/ 19  14.9 10.7  1027.0    0.2   0.0   0.0   0.0   ----- 
Wed 19:00    S 13/ 19  15.2 11.0  1027.4    0.2   0.0   0.0   0.0   ----- 
Wed 19:30    S 20/ 28  16.1 11.3  1027.6    0.2   0.0   0.0   0.0   ----- 
Wed 20:00    S 20/ 28  16.1 11.5  1028.1    0.2   0.0   0.0   0.0   ----- 
Wed 20:30    S 20/ 26  16.2 11.4  1028.4    0.2   0.0   0.0   0.0   ----- 
Wed 21:00  SSE 17/ 26  16.4 11.8  1028.5    0.2   0.0   0.0   0.0   ----- 
Wed 21:30   SE 17/ 22  16.1 12.5  1028.6    0.2   0.0   0.0   0.0   ----- 
Wed 22:00   SE 15/ 19  15.7 11.7  1028.8    0.2   0.0   0.0   0.0   ----- 
Wed 22:30   SE 17/ 24  15.5 12.1  1028.9    0.2   0.0   0.0   0.0   ----- 
Wed 23:00   SE 22/ 28  15.5 12.6  1029.1    0.2   0.0   0.0   0.0   ----- 

SCOTT RIVER AG STATION

Site: 009CTR
Alt: 30m
72km WNW of PEMBERTON


  Time     Wind        Temp  DP   Baro     Rain since   Rain past  Vis(m), Cloud(base in m), Weather
  local        km/h                         9am  last   hr   10m    
Wed 18:00  SSE  6/ 11  14.1 10.1  ------    0.0   0.0   0.0   0.0   ----- 
Wed 18:30  SSE  6/ 13  13.9 10.3  ------    0.0   0.0   0.0   0.0   ----- 
Wed 19:00  SSE  4/  9  13.4  9.3  ------    0.0   0.0   0.0   0.0   ----- 
Wed 19:30   SE  6/  7  13.0  9.5  ------    0.0   0.0   0.0   0.0   ----- 
Wed 20:00  ESE  4/ 11  12.4  9.5  ------    0.0   0.0   0.0   0.0   ----- 
Wed 20:30   NW  4/  6  11.0  9.6  ------    0.0   0.0   0.0   0.0   ----- 
Wed 21:00    N  2/  6  11.5 10.6  ------    0.0   0.0   0.0   0.0   ----- 
Wed 21:30    C  0/  2  11.2 10.5  ------    0.0   0.0   0.0   0.0   ----- 
Wed 22:00  ENE  2/  4  11.3 10.6  ------    0.0   0.0   0.0   0.0   ----- 
Wed 22:30    C  0/  2  11.1 10.4  ------    0.0   0.0   0.0   0.0   ----- 

SHANNON

Site: 009968
Alt: 210.0m
40km SSE of MANJIMUP


  Time     Wind        Temp  DP   Baro     Rain since   Rain past  Vis(m), Cloud(base in m), Weather
  local        km/h                         9am  last   hr   10m    
Wed 18:00    S  9/ 13  12.4  9.8  ------    3.4   0.0   0.0   0.0   ----- 
Wed 18:30    S  9/ 13  12.0  9.4  ------    3.4   0.0   0.0   0.0   ----- 
Wed 19:00    S  7/ 11  11.1  9.0  ------    3.4   0.0   0.0   0.0   ----- 
Wed 19:30    S  4/  6   9.9  9.0  ------    3.4   0.0   0.0   0.0   ----- 
Wed 20:00    C  0/  0   9.3  8.8  ------    3.4   0.0   0.0   0.0   ----- 
Wed 20:30    C  0/  0   9.0  8.7  ------    3.4   0.0   0.0   0.0   ----- 
Wed 21:00    C  0/  0   9.3  9.2  ------    3.4   0.0   0.0   0.0   ----- 
Wed 21:30    S  2/  9   9.5  9.4  ------    3.4   0.0   0.0   0.0   ----- 
Wed 22:00    C  0/  7   9.6  9.5  ------    3.4   0.0   0.0   0.0   ----- 
Wed 22:30    S  7/  9   9.6  9.5  ------    3.4   0.0   0.0   0.0   ----- 
Wed 23:00    S  7/ 11   8.4  8.3  ------    3.4   0.0   0.0   0.0   ----- 

SOUTH PERTH AG STATION

Site: 009GSP
Alt: m
km of


  Time     Wind        Temp  DP   Baro     Rain since   Rain past  Vis(m), Cloud(base in m), Weather
  local        km/h                         9am  last   hr   10m    
Wed 18:00    C  0/  0  13.5 10.3  ------    0.0   0.0   0.0   0.0   ----- 
Wed 18:30    C  0/  0  12.8 10.3  ------    0.0   0.0   0.0   0.0   ----- 
Wed 19:00    C  0/  0  12.0  9.9  ------    0.0   0.0   0.0   0.0   ----- 
Wed 19:30    C  0/  0  11.7  9.9  ------    0.0   0.0   0.0   0.0   ----- 
Wed 20:00    C  0/  0  11.3  9.9  ------    0.0   0.0   0.0   0.0   ----- 
Wed 20:30    C  0/  0  10.9  9.7  ------    0.0   0.0   0.0   0.0   ----- 
Wed 21:00    C  0/  0  10.7  9.5  ------    0.0   0.0   0.0   0.0   ----- 
Wed 21:30    C  0/  2  11.0  9.8  ------    0.0   0.0   0.0   0.0   ----- 
Wed 22:00    C  0/  0  10.2  9.1  ------    0.0   0.0   0.0   0.0   ----- 
Wed 22:30    C  0/  2   9.5  8.5  ------    0.0   0.0   0.0   0.0   ----- 

STIRLINGS SOUTH AG STATION

Site: 009LGS
Alt: 150m
26km ENE of MOUNT BARKER


  Time     Wind        Temp  DP   Baro     Rain since   Rain past  Vis(m), Cloud(base in m), Weather
  local        km/h                         9am  last   hr   10m    
Wed 18:00  SSW  6/ 11  12.1 10.8  ------    2.2   0.0   0.0   0.0   ----- 
Wed 18:30    S  6/  9  11.4 10.2  ------    2.2   0.0   0.0   0.0   ----- 
Wed 19:00    C  0/  4  10.4  9.3  ------    2.2   0.0   0.0   0.0   ----- 
Wed 19:30   NW  4/  4  10.7 10.2  ------    2.2   0.0   0.0   0.0   ----- 
Wed 20:00    C  0/  4  10.0  9.3  ------    2.2   0.0   0.0   0.0   ----- 

Wed 20:30  NNW  2/  6  10.3  9.9  ------    2.2   0.0   0.0   0.0   ----- 
Wed 21:00    W  2/  6  10.1  9.5  ------    2.2   0.0   0.0   0.0   ----- 
Wed 21:30   SW  4/  7   9.5  8.7  ------    2.2   0.0   0.0   0.0   ----- 
Wed 22:00    C  0/  2   9.3  8.8  ------    2.2   0.0   0.0   0.0   ----- 
Wed 22:30    C  0/  0   9.1  8.6  ------    2.2   0.0   0.0   0.0   ----- 

SWANBOURNE

Site: 009215
Alt: 41.0m
9km W of PERTH CBD


  Time     Wind        Temp  DP   Baro     Rain since   Rain past  Vis(m), Cloud(base in m), Weather
  local        km/h                         9am  last   hr   10m    
Wed 18:00  SSW  7/ 11  14.8 10.6  ------    0.0   0.0   0.0   0.0   ----- 
Wed 18:30    S  9/ 13  14.4 10.2  ------    0.0   0.0   0.0   0.0   ----- 
Wed 19:00    S 11/ 15  14.6 10.2  ------    0.0   0.0   0.0   0.0   ----- 
Wed 19:30    S  9/ 11  14.2 10.4  ------    0.0   0.0   0.0   0.0   ----- 
Wed 20:00   SE  7/  9  14.2 10.2  ------    0.0   0.0   0.0   0.0   ----- 
Wed 20:30  SSE  9/ 11  13.9 10.7  ------    0.0   0.0   0.0   0.0   ----- 
Wed 21:00   SE  7/ 11  13.9 10.3  ------    0.0   0.0   0.0   0.0   ----- 
Wed 21:30   SE  9/ 13  13.1 10.1  ------    0.0   0.0   0.0   0.0   ----- 
Wed 22:00  ESE  9/ 11  12.9 10.3  ------    0.0   0.0   0.0   0.0   ----- 
Wed 22:30  ESE  9/ 11  12.3 10.0  ------    0.0   0.0   0.0   0.0   ----- 
Wed 23:00  ESE  9/ 11  11.7 10.1  ------    0.0   0.0   0.0   0.0   ----- 

VASSE AG STATION

Site: 009GVA
Alt: m
11km SSE of BUSSELTON


  Time     Wind        Temp  DP   Baro     Rain since   Rain past  Vis(m), Cloud(base in m), Weather
  local        km/h                         9am  last   hr   10m    
Wed 18:00  SSE  4/ 11  13.6 13.6  ------    0.2   0.0   0.0   0.0   ----- 
Wed 18:30    C  0/  0  12.1 12.1  ------    0.2   0.0   0.0   0.0   ----- 
Wed 19:00    C  0/  0  11.1 11.1  ------    0.2   0.0   0.0   0.0   ----- 
Wed 19:30    C  0/  2  10.2 10.2  ------    0.2   0.0   0.0   0.0   ----- 
Wed 20:00    S  4/  4   9.4  9.4  ------    0.2   0.0   0.0   0.0   ----- 
Wed 20:30    S  2/  4   9.0  9.0  ------    0.2   0.0   0.0   0.0   ----- 
Wed 21:00    S  2/  4   8.8  8.8  ------    0.2   0.0   0.0   0.0   ----- 
Wed 21:30    C  0/  2   8.2  8.2  ------    0.2   0.0   0.0   0.0   ----- 
Wed 22:00    C  0/  0   7.4  7.4  ------    0.2   0.0   0.0   0.0   ----- 
Wed 22:30    C  0/  2   7.5  7.5  ------    0.2   0.0   0.0   0.0   ----- 

WANNEROO AG STATION

Site: 009GWN
Alt: m
km of


  Time     Wind        Temp  DP   Baro     Rain since   Rain past  Vis(m), Cloud(base in m), Weather
  local        km/h                         9am  last   hr   10m    
Wed 18:00    C  0/  2  11.8 10.3  ------    0.0   0.0   0.0   0.0   ----- 
Wed 18:30    C  0/  2  10.9  9.8  ------    0.0   0.0   0.0   0.0   ----- 
Wed 19:00    C  0/  0   9.9  9.0  ------    0.0   0.0   0.0   0.0   ----- 
Wed 19:30    C  0/  0   9.6  9.0  ------    0.0   0.0   0.0   0.0   ----- 
Wed 20:00    C  0/  2   8.8  8.1  ------    0.0   0.0   0.0   0.0   ----- 
Wed 20:30    C  0/  2   8.2  7.5  ------    0.0   0.0   0.0   0.0   ----- 
Wed 21:00    C  0/  0   8.1  7.5  ------    0.0   0.0   0.0   0.0   ----- 
Wed 21:30    C  0/  0   7.6  7.1  ------    0.0   0.0   0.0   0.0   ----- 
Wed 22:00    C  0/  0   7.1  6.6  ------    0.0   0.0   0.0   0.0   ----- 
Wed 22:30    C  0/  0   6.8  6.3  ------    0.0   0.0   0.0   0.0   ----- 

WAROONA

Site: 009GWR
Alt: 36 m
39km SSE of MANDURAH


  Time     Wind        Temp  DP   Baro     Rain since   Rain past  Vis(m), Cloud(base in m), Weather
  local        km/h                         9am  last   hr   10m    
Wed 18:00  ESE  2/---  11.8  9.4  ------    0.0   0.0   0.0   0.0   ----- 
Wed 18:30    E  2/---  11.0  9.3  ------    0.0   0.0   0.0   0.0   ----- 
Wed 19:00    E  2/---  11.3  9.9  ------    0.0   0.0   0.0   0.0   ----- 
Wed 19:30  ESE  2/---  11.7 10.1  ------    0.0   0.0   0.0   0.0   ----- 
Wed 20:00    E  2/---  12.1 10.2  ------    0.0   0.0   0.0   0.0   ----- 
Wed 20:30   SE  2/---  11.2  9.7  ------    0.0   0.0   0.0   0.0   ----- 
Wed 21:00  ESE  4/---  12.5  9.9  ------    0.0   0.0   0.0   0.0   ----- 
Wed 21:30   SE  2/---  11.8  9.3  ------    0.0   0.0   0.0   0.0   ----- 
Wed 22:00   SE  4/---  12.5  9.7  ------    0.0   0.0   0.0   0.0   ----- 
Wed 22:30   SE  2/---  11.7  9.4  ------    0.0   0.0   0.0   0.0   ----- 

WELLSTEAD AG STATION

Site: 009GWE
Alt: m
89km NE of ALBANY


  Time     Wind        Temp  DP   Baro     Rain since   Rain past  Vis(m), Cloud(base in m), Weather
  local        km/h                         9am  last   hr   10m    
Wed 18:00  WSW  2/  7  12.2 11.6  ------    0.4   0.0   0.0   0.0   ----- 
Wed 18:30    S  7/ 15  12.0 11.4  ------    0.4   0.0   0.0   0.0   ----- 
Wed 19:00    C  0/  2  11.0 10.5  ------    0.4   0.0   0.0   0.0   ----- 
Wed 19:30  WSW  4/  7  11.7 11.2  ------    0.4   0.0   0.0   0.0   ----- 
Wed 20:00  WSW  2/  9  11.4 10.8  ------    0.4   0.0   0.0   0.0   ----- 
Wed 20:30  WSW  2/  7  11.4 10.8  ------    0.4   0.0   0.0   0.0   ----- 
Wed 21:00    C  0/  6  11.3 10.5  ------    0.4   0.0   0.0   0.0   ----- 
Wed 21:30  WSW  2/  4  10.7 10.0  ------    0.4   0.0   0.0   0.0   ----- 
Wed 22:00  SSW  2/  4  10.8  9.9  ------    0.4   0.0   0.0   0.0   ----- 
Wed 22:30    C  0/  4  10.2  9.2  ------    0.4   0.0   0.0   0.0   ----- 

WILYABRUP AG STATION

Site: 009LBP
Alt: 100m
30km SW of BUSSELTON


  Time     Wind        Temp  DP   Baro     Rain since   Rain past  Vis(m), Cloud(base in m), Weather
  local        km/h                         9am  last   hr   10m    
Wed 18:00   SE  2/  6  13.1 10.3  ------    0.8   0.0   0.0   0.0   ----- 
Wed 18:30    C  0/  6  12.5 10.2  ------    1.0   0.2   0.2   0.0   ----- 
Wed 19:00   SE  2/  7  12.4 10.2  ------    1.0   0.0   0.2   0.0   ----- 
Wed 19:30    C  0/  4  11.6  9.7  ------    1.0   0.0   0.0   0.0   ----- 
Wed 20:00    C  0/  4  11.2  9.7  ------    1.0   0.0   0.0   0.0   ----- 
Wed 20:30    C  0/  2  10.6  9.3  ------    1.0   0.0   0.0   0.0   ----- 
Wed 21:00    C  0/  2  10.6  9.6  ------    1.2   0.2   0.2   0.2   ----- 
Wed 21:30    C  0/  2  10.4  9.5  ------    1.2   0.0   0.2   0.0   ----- 
Wed 22:00    C  0/  2  10.3  9.5  ------    1.2   0.0   0.0   0.0   ----- 
Wed 22:30   SE  2/  6  10.6  9.9  ------    1.2   0.0   0.0   0.0   ----- 

WITCHCLIFFE

Site: 009746
Alt: 80.0m
9km SSE of MARGARET RIVER


  Time     Wind        Temp  DP   Baro     Rain since   Rain past  Vis(m), Cloud(base in m), Weather
  local        km/h                         9am  last   hr   10m    
Wed 18:00   SE  7/ 11  12.2 10.6  1027.6    0.8   0.0   0.0   0.0   ----- 
Wed 18:30    C  0/  0  11.5 10.2  1027.9    0.8   0.0   0.0   0.0   ----- 
Wed 19:00    C  0/  0  11.0 10.2  1028.4    0.8   0.0   0.0   0.0   ----- 
Wed 19:30    S  2/  7   9.6  8.8  1028.9    0.8   0.0   0.0   0.0   ----- 
Wed 20:00    C  0/  0   9.7  9.2  1029.3    0.8   0.0   0.0   0.0   ----- 
Wed 20:30    C  0/  0   9.4  9.1  1029.7    0.8   0.0   0.0   0.0   ----- 
Wed 21:00    C  0/  0   8.7  8.6  1030.0    0.8   0.0   0.0   0.0   ----- 
Wed 21:30    C  0/  0   8.4  8.3  1030.3    0.8   0.0   0.0   0.0   ----- 
Wed 22:00    C  0/  0   8.1  8.0  1030.5    0.8   0.0   0.0   0.0   ----- 
Wed 22:30    C  0/  0   7.8  7.7  1030.6    0.8   0.0   0.0   0.0   ----- 
Wed 23:00    C  0/  0   7.6  7.5  1030.7    0.8   0.0   0.0   0.0   -----